createdAt,value
2023-03-10T00:01:20.721Z,3.10
2023-03-10T00:03:49.897Z,2.60
2023-03-10T00:06:20.770Z,2.63
2023-03-10T00:08:49.455Z,2.50
2023-03-10T00:11:18.373Z,2.20
2023-03-10T00:13:47.194Z,2.33
2023-03-10T00:16:21.619Z,2.42
2023-03-10T00:18:50.424Z,2.35
2023-03-10T00:21:21.046Z,3.33
2023-03-10T00:23:49.305Z,3.83
2023-03-10T00:26:19.199Z,3.42
2023-03-10T00:28:47.682Z,3.97
2023-03-10T00:31:18.990Z,4.82
2023-03-10T00:33:49.500Z,5.00
2023-03-10T00:36:19.850Z,6.05
2023-03-10T00:38:51.506Z,6.38
2023-03-10T00:41:21.977Z,7.97
2023-03-10T00:43:50.683Z,9.13
2023-03-10T00:46:19.521Z,10.02
2023-03-10T00:48:49.366Z,10.93
2023-03-10T00:51:18.229Z,9.77
2023-03-10T00:53:46.958Z,8.63
2023-03-10T00:56:17.456Z,8.18
2023-03-10T00:58:46.737Z,7.25
2023-03-10T01:01:17.616Z,6.82
2023-03-10T01:03:46.302Z,6.10
2023-03-10T01:06:16.041Z,5.30
2023-03-10T01:08:44.340Z,4.35
2023-03-10T01:11:16.125Z,4.05
2023-03-10T01:13:44.630Z,3.92
2023-03-10T01:16:13.331Z,3.67
2023-03-10T01:18:43.301Z,3.75
2023-03-10T01:21:18.449Z,3.70
2023-03-10T01:23:46.946Z,3.00
2023-03-10T01:26:17.319Z,3.17
2023-03-10T01:28:46.927Z,3.38
2023-03-10T01:31:15.751Z,2.97
2023-03-10T01:33:44.474Z,2.67
2023-03-10T01:36:15.837Z,2.80
2023-03-10T01:38:46.279Z,2.67
2023-03-10T01:41:14.621Z,2.63
2023-03-10T01:43:43.981Z,2.70
2023-03-10T01:46:41.089Z,3.28
2023-03-10T01:49:29.740Z,2.88
2023-03-10T01:52:03.556Z,2.42
2023-03-10T01:54:40.346Z,3.05
2023-03-10T01:57:09.536Z,3.15
2023-03-10T01:59:37.828Z,2.90
2023-03-10T02:02:06.506Z,2.58
2023-03-10T02:04:38.211Z,2.63
2023-03-10T02:07:08.408Z,3.35
2023-03-10T02:09:41.870Z,3.28
2023-03-10T02:12:12.701Z,3.90
2023-03-10T02:14:42.003Z,3.55
2023-03-10T02:17:17.460Z,3.30
2023-03-10T02:19:59.461Z,3.55
2023-03-10T02:22:28.012Z,3.35
2023-03-10T02:25:03.069Z,3.30
2023-03-10T02:27:34.897Z,3.33
2023-03-10T02:30:06.610Z,3.92
2023-03-10T02:32:38.351Z,4.00
2023-03-10T02:35:07.449Z,3.67
2023-03-10T02:37:36.737Z,3.55
2023-03-10T02:40:23.987Z,3.85
2023-03-10T02:42:53.911Z,3.70
2023-03-10T02:45:22.202Z,3.83
2023-03-10T02:47:50.482Z,3.60
2023-03-10T02:50:19.902Z,4.15
2023-03-10T02:52:51.965Z,3.97
2023-03-10T02:55:20.517Z,3.72
2023-03-10T02:57:49.013Z,3.15
2023-03-10T03:00:19.220Z,4.00
2023-03-10T03:02:47.662Z,3.67
2023-03-10T03:05:15.789Z,3.30
2023-03-10T03:07:44.300Z,3.55
2023-03-10T03:10:13.288Z,3.97
2023-03-10T03:12:41.482Z,2.90
2023-03-10T03:15:10.335Z,3.40
2023-03-10T03:17:39.974Z,3.88
2023-03-10T03:20:14.578Z,3.55
2023-03-10T03:22:43.601Z,3.70
2023-03-10T03:25:14.129Z,3.20
2023-03-10T03:27:42.623Z,3.00
2023-03-10T03:30:14.119Z,4.03
2023-03-10T03:32:44.233Z,3.10
2023-03-10T03:35:14.547Z,2.83
2023-03-10T03:37:42.858Z,2.80
2023-03-10T03:40:13.328Z,3.03
2023-03-10T03:42:42.339Z,2.38
2023-03-10T03:45:11.950Z,3.22
2023-03-10T03:47:40.560Z,2.25
2023-03-10T03:50:13.169Z,2.50
2023-03-10T03:52:42.168Z,2.47
2023-03-10T03:55:13.113Z,2.28
2023-03-10T03:57:41.668Z,2.50
2023-03-10T04:00:14.317Z,2.15
2023-03-10T04:02:42.580Z,2.15
2023-03-10T04:05:12.888Z,2.05
2023-03-10T04:07:41.910Z,2.50
2023-03-10T04:10:11.800Z,2.60
2023-03-10T04:12:39.929Z,2.50
2023-03-10T04:15:09.463Z,2.92
2023-03-10T04:17:38.118Z,2.40
2023-03-10T04:20:08.701Z,2.88
2023-03-10T04:22:39.066Z,2.28
2023-03-10T04:25:08.921Z,2.17
2023-03-10T04:27:37.615Z,2.10
2023-03-10T04:30:07.365Z,2.45
2023-03-10T04:32:35.783Z,2.55
2023-03-10T04:35:04.111Z,3.15
2023-03-10T04:37:32.761Z,2.83
2023-03-10T04:40:02.527Z,2.50
2023-03-10T04:42:30.703Z,3.10
2023-03-10T04:44:59.767Z,2.95
2023-03-10T04:47:27.894Z,2.72
2023-03-10T04:49:56.022Z,2.85
2023-03-10T04:52:24.971Z,3.20
2023-03-10T04:54:53.164Z,3.05
2023-03-10T04:57:24.586Z,3.10
2023-03-10T04:59:53.397Z,3.08
2023-03-10T05:02:21.567Z,3.20
2023-03-10T05:04:49.986Z,3.17
2023-03-10T05:07:18.681Z,2.70
2023-03-10T05:09:46.815Z,3.60
2023-03-10T05:12:15.093Z,3.45
2023-03-10T05:14:45.037Z,3.83
2023-03-10T05:17:13.679Z,3.40
2023-03-10T05:19:42.006Z,3.53
2023-03-10T05:22:12.726Z,2.78
2023-03-10T05:24:40.956Z,3.42
2023-03-10T05:27:10.470Z,3.47
2023-03-10T05:29:40.315Z,3.90
2023-03-10T05:32:10.180Z,3.50
2023-03-10T05:34:38.454Z,2.78
2023-03-10T05:37:06.924Z,3.00
2023-03-10T05:39:35.120Z,2.97
2023-03-10T05:42:03.300Z,3.22
2023-03-10T05:44:31.972Z,3.75
2023-03-10T05:47:00.201Z,3.25
2023-03-10T05:49:29.897Z,3.38
2023-03-10T05:51:58.397Z,3.05
2023-03-10T05:54:26.742Z,3.85
2023-03-10T05:56:55.216Z,3.25
2023-03-10T05:59:23.906Z,5.00
2023-03-10T06:01:52.100Z,2.97
2023-03-10T06:04:20.315Z,4.65
2023-03-10T06:06:50.108Z,3.70
2023-03-10T06:09:18.295Z,2.60
2023-03-10T06:11:46.428Z,2.85
2023-03-10T06:14:14.896Z,2.97
2023-03-10T06:16:44.918Z,2.85
2023-03-10T06:19:13.104Z,2.15
2023-03-10T06:21:42.062Z,2.25
2023-03-10T06:24:11.822Z,2.30
2023-03-10T06:26:40.485Z,2.30
2023-03-10T06:29:09.080Z,2.75
2023-03-10T06:31:37.283Z,3.42
2023-03-10T06:34:05.839Z,2.67
2023-03-10T06:36:34.946Z,3.17
2023-03-10T06:39:03.089Z,2.90
2023-03-10T06:41:32.656Z,3.03
2023-03-10T06:44:00.988Z,3.10
2023-03-10T06:46:29.499Z,3.08
2023-03-10T06:48:57.802Z,3.00
2023-03-10T06:51:26.413Z,3.40
2023-03-10T06:53:55.248Z,3.08
2023-03-10T06:56:24.058Z,3.10
2023-03-10T06:58:53.786Z,3.20
2023-03-10T07:01:26.310Z,3.10
2023-03-10T07:03:55.506Z,2.90
2023-03-10T07:06:24.497Z,2.92
2023-03-10T07:08:53.320Z,3.08
2023-03-10T07:11:22.734Z,3.28
2023-03-10T07:13:51.097Z,3.20
2023-03-10T07:16:20.733Z,4.10
2023-03-10T07:18:49.317Z,3.83
2023-03-10T07:21:19.624Z,3.60
2023-03-10T07:23:48.320Z,4.30
2023-03-10T07:26:19.059Z,3.80
2023-03-10T07:28:47.975Z,3.80
2023-03-10T07:31:17.549Z,3.75
2023-03-10T07:33:47.557Z,4.25
2023-03-10T07:36:18.074Z,3.88
2023-03-10T07:38:46.852Z,3.83
2023-03-10T07:41:17.773Z,3.53
2023-03-10T07:43:46.197Z,3.88
2023-03-10T07:46:16.333Z,4.47
2023-03-10T07:48:46.616Z,4.70
2023-03-10T07:51:14.822Z,4.22
2023-03-10T07:53:43.332Z,4.70
2023-03-10T07:56:16.921Z,4.60
2023-03-10T07:58:45.157Z,4.00
2023-03-10T08:01:17.662Z,4.30
2023-03-10T08:03:47.852Z,4.22
2023-03-10T08:06:21.084Z,4.57
2023-03-10T08:08:49.438Z,4.57
2023-03-10T08:11:18.223Z,4.20
2023-03-10T08:13:48.262Z,4.85
2023-03-10T08:16:17.797Z,3.95
2023-03-10T08:18:47.509Z,4.13
2023-03-10T08:21:15.849Z,3.35
2023-03-10T08:23:43.988Z,3.85
2023-03-10T08:26:17.203Z,3.30
2023-03-10T08:28:46.274Z,3.33
2023-03-10T08:31:17.142Z,3.17
2023-03-10T08:33:47.674Z,3.38
2023-03-10T08:36:17.906Z,3.30
2023-03-10T08:38:46.392Z,3.53
2023-03-10T08:41:17.199Z,3.30
2023-03-10T08:43:48.458Z,3.25
2023-03-10T08:46:18.160Z,3.60
2023-03-10T08:48:48.372Z,4.53
2023-03-10T08:51:16.837Z,4.43
2023-03-10T08:53:47.791Z,5.68
2023-03-10T08:56:17.044Z,6.03
2023-03-10T08:58:45.399Z,6.28
2023-03-10T09:01:14.384Z,6.75
2023-03-10T09:03:44.658Z,8.07
2023-03-10T09:06:15.049Z,8.05
2023-03-10T09:08:43.974Z,8.52
2023-03-10T09:11:16.832Z,8.18
2023-03-10T09:13:45.146Z,9.00
2023-03-10T09:16:13.678Z,8.60
2023-03-10T09:18:44.878Z,7.45
2023-03-10T09:21:16.803Z,6.18
2023-03-10T09:23:48.001Z,4.90
2023-03-10T09:26:16.770Z,4.15
2023-03-10T09:28:44.938Z,3.80
2023-03-10T09:31:17.490Z,2.88
2023-03-10T09:33:48.231Z,3.40
2023-03-10T09:36:20.913Z,3.38
2023-03-10T09:38:49.415Z,3.15
2023-03-10T09:41:38.539Z,3.03
2023-03-10T09:44:23.030Z,2.90
2023-03-10T09:47:02.020Z,2.78
2023-03-10T09:49:35.059Z,2.50
2023-03-10T09:52:17.093Z,2.47
2023-03-10T09:54:54.165Z,2.30
2023-03-10T09:57:24.535Z,2.60
2023-03-10T09:59:56.730Z,2.60
2023-03-10T10:02:29.253Z,2.53
2023-03-10T10:05:03.882Z,2.65
2023-03-10T10:07:44.266Z,2.65
2023-03-10T10:10:18.905Z,3.20
2023-03-10T10:12:48.708Z,3.92
2023-03-10T10:15:21.908Z,4.30
2023-03-10T10:18:18.086Z,4.45
2023-03-10T10:20:51.694Z,4.10
2023-03-10T10:23:25.714Z,4.40
2023-03-10T10:25:54.844Z,3.88
2023-03-10T10:28:32.892Z,4.10
2023-03-10T10:31:16.433Z,4.35
2023-03-10T10:33:56.515Z,5.03
2023-03-10T10:36:26.129Z,3.75
2023-03-10T10:38:57.694Z,4.05
2023-03-10T10:41:30.797Z,4.43
2023-03-10T10:44:06.749Z,4.60
2023-03-10T10:46:35.456Z,4.35
2023-03-10T10:49:06.211Z,4.40
2023-03-10T10:51:38.009Z,4.50
2023-03-10T10:54:28.218Z,3.60
2023-03-10T10:56:59.078Z,4.18
2023-03-10T10:59:30.938Z,3.85
2023-03-10T11:02:00.957Z,3.10
2023-03-10T11:04:31.388Z,2.40
2023-03-10T11:07:20.098Z,2.33
2023-03-10T11:09:49.954Z,2.47
2023-03-10T11:12:23.283Z,3.20
2023-03-10T11:15:07.916Z,3.20
2023-03-10T11:17:41.816Z,3.30
2023-03-10T11:20:24.412Z,3.60
2023-03-10T11:23:01.379Z,3.88
2023-03-10T11:25:37.965Z,4.60
2023-03-10T11:28:20.295Z,4.35
2023-03-10T11:30:52.933Z,4.88
2023-03-10T11:33:29.309Z,4.47
2023-03-10T11:36:01.236Z,4.03
2023-03-10T11:38:38.796Z,3.60
2023-03-10T11:41:14.440Z,3.90
2023-03-10T11:43:56.355Z,3.47
2023-03-10T11:46:29.798Z,3.08
2023-03-10T11:49:07.770Z,2.92
2023-03-10T11:51:40.314Z,3.10
2023-03-10T11:54:15.639Z,3.08
2023-03-10T11:56:45.761Z,2.80
2023-03-10T11:59:19.132Z,2.42
2023-03-10T12:01:53.055Z,2.60
2023-03-10T12:04:25.106Z,2.25
2023-03-10T12:06:58.679Z,2.38
2023-03-10T12:09:38.940Z,2.67
2023-03-10T12:12:15.004Z,2.50
2023-03-10T12:14:45.421Z,3.00
2023-03-10T12:17:15.772Z,2.90
2023-03-10T12:20:25.156Z,2.88
2023-03-10T12:22:54.606Z,2.83
2023-03-10T12:25:46.212Z,2.75
2023-03-10T12:28:24.490Z,2.53
2023-03-10T12:30:56.546Z,2.42
2023-03-10T12:34:01.672Z,2.10
2023-03-10T12:36:40.719Z,2.90
2023-03-10T12:39:42.703Z,2.70
2023-03-10T12:42:31.566Z,2.67
2023-03-10T12:45:24.270Z,2.80
2023-03-10T12:47:59.075Z,3.72
2023-03-10T12:50:43.324Z,4.40
2023-03-10T12:53:30.333Z,4.88
2023-03-10T12:56:20.027Z,6.47
2023-03-10T12:58:56.307Z,7.15
2023-03-10T13:01:32.368Z,7.93
2023-03-10T13:04:01.080Z,9.07
2023-03-10T13:06:34.793Z,8.57
2023-03-10T13:11:43.002Z,8.85
2023-03-10T13:14:14.592Z,8.68
2023-03-10T13:16:54.570Z,6.35
2023-03-10T13:19:25.404Z,2.22
2023-03-10T13:21:54.328Z,1.50
2023-03-10T13:24:25.861Z,1.20
2023-03-10T13:27:08.942Z,1.10
2023-03-10T13:29:37.282Z,0.80
2023-03-10T13:32:08.226Z,1.20
2023-03-10T13:34:37.025Z,1.60
2023-03-10T13:37:07.427Z,1.48
2023-03-10T13:39:35.686Z,1.75
2023-03-10T13:42:06.894Z,1.55
2023-03-10T13:44:40.864Z,1.23
2023-03-10T13:47:18.975Z,1.15
2023-03-10T13:49:50.541Z,1.58
2023-03-10T13:52:21.693Z,1.23
2023-03-10T13:54:50.543Z,1.42
2023-03-10T13:57:23.988Z,1.17
2023-03-10T13:59:53.565Z,1.13
2023-03-10T14:02:28.549Z,1.05
2023-03-10T14:04:58.504Z,1.10
2023-03-10T14:07:29.629Z,1.25
2023-03-10T14:10:16.120Z,1.50
2023-03-10T14:12:46.766Z,1.45
2023-03-10T14:15:24.473Z,1.40
2023-03-10T14:18:18.620Z,1.63
2023-03-10T14:20:48.036Z,1.38
2023-03-10T14:23:38.090Z,1.70
2023-03-10T14:26:16.199Z,2.90
2023-03-10T14:28:45.192Z,2.72
2023-03-10T14:31:21.532Z,2.88
2023-03-10T14:33:51.866Z,2.55
2023-03-10T14:36:20.151Z,2.83
2023-03-10T14:38:48.316Z,2.97
2023-03-10T14:41:20.353Z,3.20
2023-03-10T14:43:48.675Z,3.35
2023-03-10T14:46:17.123Z,3.90
2023-03-10T14:48:46.257Z,4.43
2023-03-10T14:51:32.645Z,4.75
2023-03-10T14:54:03.379Z,4.95
2023-03-10T14:56:32.954Z,4.40
2023-03-10T14:59:02.468Z,6.60
2023-03-10T15:01:31.658Z,4.95
2023-03-10T15:04:00.269Z,5.07
2023-03-10T15:06:30.144Z,4.28
2023-03-10T15:08:58.348Z,4.25
2023-03-10T15:11:37.123Z,4.07
2023-03-10T15:14:11.652Z,3.60
2023-03-10T15:16:40.274Z,2.70
2023-03-10T15:19:13.611Z,2.00
2023-03-10T15:21:43.532Z,1.90
2023-03-10T15:24:11.932Z,1.10
2023-03-10T15:26:40.169Z,0.95
2023-03-10T15:29:08.732Z,1.17
2023-03-10T15:31:36.965Z,1.00
2023-03-10T15:34:05.347Z,0.90
2023-03-10T15:36:34.395Z,1.00
2023-03-10T15:39:05.187Z,1.48
2023-03-10T15:41:36.479Z,1.10
2023-03-10T15:44:08.181Z,1.10
2023-03-10T15:46:36.380Z,1.40
2023-03-10T15:49:04.927Z,1.23
2023-03-10T15:51:33.613Z,1.13
2023-03-10T15:54:03.654Z,2.30
2023-03-10T15:56:34.116Z,1.52
2023-03-10T15:59:02.850Z,1.80
2023-03-10T16:01:31.441Z,2.03
2023-03-10T16:04:02.009Z,1.38
2023-03-10T16:06:30.654Z,1.67
2023-03-10T16:08:58.898Z,1.55
2023-03-10T16:11:28.999Z,1.50
2023-03-10T16:13:57.498Z,1.50
2023-03-10T16:16:26.495Z,1.58
2023-03-10T16:18:55.319Z,1.48
2023-03-10T16:21:23.763Z,1.20
2023-03-10T16:23:51.920Z,1.30
2023-03-10T16:26:22.637Z,1.30
2023-03-10T16:28:54.149Z,1.30
2023-03-10T16:31:24.125Z,0.90
2023-03-10T16:33:52.637Z,1.27
2023-03-10T16:36:22.838Z,1.40
2023-03-10T16:38:53.625Z,1.33
2023-03-10T16:41:23.599Z,1.90
2023-03-10T16:43:54.674Z,2.05
2023-03-10T16:46:26.341Z,1.90
2023-03-10T16:48:55.872Z,1.95
2023-03-10T16:51:29.343Z,1.85
2023-03-10T16:53:59.507Z,1.75
2023-03-10T16:56:29.158Z,2.67
2023-03-10T16:58:59.579Z,1.83
2023-03-10T17:01:28.172Z,1.17
2023-03-10T17:03:56.993Z,1.48
2023-03-10T17:06:28.137Z,1.10
2023-03-10T17:08:58.429Z,1.10
2023-03-10T17:11:28.640Z,1.40
2023-03-10T17:14:00.266Z,1.00
2023-03-10T17:16:31.049Z,0.80
2023-03-10T17:19:01.321Z,0.93
2023-03-10T17:21:32.764Z,1.05
2023-03-10T17:24:01.244Z,0.90
2023-03-10T17:26:29.758Z,1.15
2023-03-10T17:28:59.728Z,1.10
2023-03-10T17:31:29.384Z,1.48
2023-03-10T17:33:59.612Z,1.08
2023-03-10T17:36:28.722Z,1.38
2023-03-10T17:38:58.326Z,0.95
2023-03-10T17:41:27.061Z,0.93
2023-03-10T17:43:55.939Z,0.75
2023-03-10T17:46:28.179Z,1.00
2023-03-10T17:48:56.774Z,1.13
2023-03-10T17:51:27.064Z,1.17
2023-03-10T17:53:57.478Z,1.00
2023-03-10T17:56:25.856Z,0.98
2023-03-10T17:58:54.538Z,0.98
2023-03-10T18:01:27.616Z,1.10
2023-03-10T18:03:56.493Z,1.20
2023-03-10T18:06:27.399Z,0.80
2023-03-10T18:08:56.765Z,1.25
2023-03-10T18:11:25.600Z,1.10
2023-03-10T18:13:54.048Z,1.30
2023-03-10T18:16:24.227Z,1.45
2023-03-10T18:18:54.235Z,1.70
2023-03-10T18:21:23.262Z,1.67
2023-03-10T18:23:53.686Z,1.55
2023-03-10T18:26:24.421Z,1.83
2023-03-10T18:28:52.906Z,1.70
2023-03-10T18:31:23.242Z,1.50
2023-03-10T18:33:51.562Z,2.00
2023-03-10T18:36:24.078Z,1.92
2023-03-10T18:38:53.707Z,1.88
2023-03-10T18:41:24.387Z,2.20
2023-03-10T18:43:53.129Z,2.35
2023-03-10T18:46:22.379Z,3.00
2023-03-10T18:48:55.673Z,2.47
2023-03-10T18:51:27.167Z,2.10
2023-03-10T18:53:55.885Z,2.30
2023-03-10T18:56:26.044Z,1.92
2023-03-10T18:58:54.686Z,2.00
2023-03-10T19:01:23.136Z,1.60
2023-03-10T19:03:51.920Z,1.70
2023-03-10T19:06:20.697Z,1.10
2023-03-10T19:08:53.244Z,1.05
2023-03-10T19:11:24.656Z,0.98
2023-03-10T19:13:53.019Z,0.85
2023-03-10T19:16:22.583Z,0.88
2023-03-10T19:18:51.292Z,1.08
2023-03-10T19:21:21.924Z,1.35
2023-03-10T19:23:52.810Z,0.90
2023-03-10T19:26:21.358Z,1.13
2023-03-10T19:28:49.640Z,1.50
2023-03-10T19:31:18.542Z,2.30
2023-03-10T19:33:46.854Z,2.20
2023-03-10T19:36:15.511Z,1.35
2023-03-10T19:38:45.269Z,2.20
2023-03-10T19:41:16.977Z,1.85
2023-03-10T19:43:46.287Z,2.00
2023-03-10T19:46:16.100Z,1.98
2023-03-10T19:48:45.010Z,2.10
2023-03-10T19:51:21.438Z,2.20
2023-03-10T19:53:51.245Z,2.08
2023-03-10T19:56:21.959Z,1.67
2023-03-10T19:58:51.045Z,2.35
2023-03-10T20:01:23.459Z,2.08
2023-03-10T20:03:52.687Z,2.20
2023-03-10T20:06:21.502Z,2.67
2023-03-10T20:08:49.851Z,2.70
2023-03-10T20:11:19.720Z,2.40
2023-03-10T20:13:50.284Z,2.80
2023-03-10T20:16:20.476Z,4.03
2023-03-10T20:18:48.865Z,4.82
2023-03-10T20:21:17.392Z,5.78
2023-03-10T20:23:48.003Z,6.13
2023-03-10T20:26:17.265Z,6.82
2023-03-10T20:28:45.914Z,5.03
2023-03-10T20:31:18.726Z,4.55
2023-03-10T20:33:47.317Z,5.68
2023-03-10T20:36:16.063Z,5.80
2023-03-10T20:38:45.791Z,11.25
2023-03-10T20:41:15.252Z,14.18
2023-03-10T20:43:44.482Z,6.20
2023-03-10T20:46:13.600Z,5.88
2023-03-10T20:48:43.612Z,5.75
2023-03-10T20:51:15.110Z,5.00
2023-03-10T20:53:43.489Z,3.40
2023-03-10T20:56:14.372Z,4.30
2023-03-10T20:58:44.696Z,3.25
2023-03-10T21:01:16.983Z,3.22
2023-03-10T21:03:47.251Z,3.30
2023-03-10T21:06:15.496Z,3.50
2023-03-10T21:08:43.681Z,3.90
2023-03-10T21:11:12.237Z,2.80
2023-03-10T21:13:40.830Z,3.38
2023-03-10T21:16:09.681Z,3.70
2023-03-10T21:18:38.346Z,3.95
2023-03-10T21:21:09.838Z,3.47
2023-03-10T21:23:39.603Z,3.40
2023-03-10T21:26:12.178Z,3.80
2023-03-10T21:28:41.151Z,3.65
2023-03-10T21:31:09.866Z,4.25
2023-03-10T21:33:38.415Z,4.20
2023-03-10T21:36:09.187Z,4.70
2023-03-10T21:38:37.737Z,4.28
2023-03-10T21:41:08.341Z,4.38
2023-03-10T21:43:36.696Z,3.40
2023-03-10T21:46:05.204Z,3.38
2023-03-10T21:48:33.540Z,3.13
2023-03-10T21:51:01.733Z,2.60
2023-03-10T21:53:31.449Z,2.95
2023-03-10T21:56:00.872Z,2.58
2023-03-10T21:58:29.200Z,2.90
2023-03-10T22:00:57.600Z,2.63
2023-03-10T22:03:26.126Z,3.00
2023-03-10T22:05:54.501Z,2.65
2023-03-10T22:08:23.015Z,2.42
2023-03-10T22:10:52.786Z,2.30
2023-03-10T22:13:21.043Z,2.60
2023-03-10T22:15:49.332Z,2.40
2023-03-10T22:18:18.072Z,1.90
2023-03-10T22:20:46.454Z,2.03
2023-03-10T22:23:14.685Z,2.10
2023-03-10T22:25:43.006Z,2.00
2023-03-10T22:28:12.695Z,2.80
2023-03-10T22:30:41.393Z,4.00
2023-03-10T22:33:10.132Z,4.57
2023-03-10T22:35:38.893Z,5.38
2023-03-10T22:38:07.839Z,2.83
2023-03-10T22:40:36.340Z,2.58
2023-03-10T22:43:07.090Z,56.95
2023-03-10T22:45:36.985Z,32.72
2023-03-10T22:48:07.346Z,14.32
2023-03-10T22:50:37.458Z,3.33
2023-03-10T22:53:08.722Z,2.60
2023-03-10T22:55:37.194Z,2.90
2023-03-10T22:58:06.520Z,2.65
2023-03-10T23:00:36.929Z,3.08
2023-03-10T23:03:07.320Z,2.60
2023-03-10T23:05:36.106Z,2.85
2023-03-10T23:08:04.566Z,2.83
2023-03-10T23:10:35.170Z,2.53
2023-03-10T23:13:05.373Z,2.80
2023-03-10T23:15:36.118Z,2.40
2023-03-10T23:18:07.405Z,2.95
2023-03-10T23:20:38.176Z,3.03
2023-03-10T23:23:08.789Z,3.40
2023-03-10T23:25:39.809Z,3.20
2023-03-10T23:28:10.353Z,3.55
2023-03-10T23:30:41.100Z,3.25
2023-03-10T23:33:13.480Z,3.58
2023-03-10T23:35:42.299Z,3.42
2023-03-10T23:38:10.846Z,3.38
2023-03-10T23:40:39.625Z,3.50
2023-03-10T23:43:09.253Z,3.55
2023-03-10T23:45:38.726Z,3.63
2023-03-10T23:48:10.435Z,4.25
2023-03-10T23:50:42.594Z,3.85
2023-03-10T23:53:13.825Z,4.28
2023-03-10T23:55:43.880Z,4.28
2023-03-10T23:58:12.857Z,4.88
